Аэропорт: Могилёв. Могилёв

ICAO: UMOO

METAR:
2021-01-19 11:00:00
UMOO 191100Z VRB01MPS 6000 -SN BKN012 OVC/// M14/M17 Q1018 R13/711218 TEMPO 2000 SN BKN005
METAR:
2021-01-19 08:00:00
TAF UMOO 190800Z 1909/1918 VRB02MPS 5000 -SN BR BKN008 TEMPO 1909/1918 17004MPS 2000 SN BKN005